sensor_id;sensor_type;location;lat;lon;timestamp;pressure;altitude;pressure_sealevel;temperature;humidity
60974;BME280;46846;51.528;5.076;2023-06-26T00:01:14;100712.00;;;28.99;37.23
60974;BME280;46846;51.528;5.076;2023-06-26T00:03:40;100717.81;;;28.96;37.24
60974;BME280;46846;51.528;5.076;2023-06-26T00:06:05;100717.31;;;28.92;37.42
60974;BME280;46846;51.528;5.076;2023-06-26T00:08:30;100721.31;;;28.90;37.44
60974;BME280;46846;51.528;5.076;2023-06-26T00:10:56;100723.34;;;28.88;37.40
60974;BME280;46846;51.528;5.076;2023-06-26T00:13:23;100725.75;;;28.83;37.29
60974;BME280;46846;51.528;5.076;2023-06-26T00:15:48;100715.78;;;28.82;37.46
60974;BME280;46846;51.528;5.076;2023-06-26T00:18:14;100718.22;;;28.76;37.65
60974;BME280;46846;51.528;5.076;2023-06-26T00:20:39;100717.03;;;28.71;37.56
60974;BME280;46846;51.528;5.076;2023-06-26T00:23:05;100724.41;;;28.70;37.64
60974;BME280;46846;51.528;5.076;2023-06-26T00:25:33;100721.00;;;28.68;37.53
60974;BME280;46846;51.528;5.076;2023-06-26T00:27:58;100725.97;;;28.64;37.43
60974;BME280;46846;51.528;5.076;2023-06-26T00:30:24;100730.06;;;28.60;37.48
60974;BME280;46846;51.528;5.076;2023-06-26T00:32:49;100728.72;;;28.56;37.57
60974;BME280;46846;51.528;5.076;2023-06-26T00:35:15;100727.53;;;28.50;37.81
60974;BME280;46846;51.528;5.076;2023-06-26T00:37:41;100724.28;;;28.47;37.43
60974;BME280;46846;51.528;5.076;2023-06-26T00:40:07;100722.56;;;28.46;37.59
60974;BME280;46846;51.528;5.076;2023-06-26T00:42:32;100711.47;;;28.39;37.85
60974;BME280;46846;51.528;5.076;2023-06-26T00:44:58;100714.03;;;28.41;37.77
60974;BME280;46846;51.528;5.076;2023-06-26T00:47:23;100716.78;;;28.32;37.63
60974;BME280;46846;51.528;5.076;2023-06-26T00:49:49;100720.03;;;28.28;37.63
60974;BME280;46846;51.528;5.076;2023-06-26T00:52:15;100721.75;;;28.20;37.97
60974;BME280;46846;51.528;5.076;2023-06-26T00:54:42;100724.81;;;28.17;37.93
60974;BME280;46846;51.528;5.076;2023-06-26T00:57:07;100733.34;;;28.14;37.89
60974;BME280;46846;51.528;5.076;2023-06-26T00:59:33;100727.88;;;28.14;37.75
60974;BME280;46846;51.528;5.076;2023-06-26T01:01:59;100733.88;;;28.09;38.04
60974;BME280;46846;51.528;5.076;2023-06-26T01:04:24;100738.81;;;28.06;37.86
60974;BME280;46846;51.528;5.076;2023-06-26T01:06:53;100731.50;;;28.06;37.71
60974;BME280;46846;51.528;5.076;2023-06-26T01:09:21;100740.00;;;28.03;37.92
60974;BME280;46846;51.528;5.076;2023-06-26T01:11:47;100744.97;;;28.00;37.95
60974;BME280;46846;51.528;5.076;2023-06-26T01:14:13;100748.41;;;27.93;38.01
60974;BME280;46846;51.528;5.076;2023-06-26T01:16:39;100747.19;;;27.88;37.91
60974;BME280;46846;51.528;5.076;2023-06-26T01:19:20;100742.06;;;27.84;38.21
60974;BME280;46846;51.528;5.076;2023-06-26T01:24:54;100748.88;;;27.72;37.88
60974;BME280;46846;51.528;5.076;2023-06-26T01:27:23;100748.72;;;27.65;38.01
60974;BME280;46846;51.528;5.076;2023-06-26T01:29:50;100745.13;;;27.65;38.02
60974;BME280;46846;51.528;5.076;2023-06-26T01:32:17;100748.34;;;27.60;38.23
60974;BME280;46846;51.528;5.076;2023-06-26T01:34:44;100754.28;;;27.55;38.37
60974;BME280;46846;51.528;5.076;2023-06-26T01:37:10;100757.72;;;27.57;37.97
60974;BME280;46846;51.528;5.076;2023-06-26T01:39:35;100759.59;;;27.49;38.31
60974;BME280;46846;51.528;5.076;2023-06-26T01:42:00;100763.00;;;27.51;38.27
60974;BME280;46846;51.528;5.076;2023-06-26T01:44:28;100765.22;;;27.47;38.40
60974;BME280;46846;51.528;5.076;2023-06-26T01:47:04;100762.31;;;27.49;38.29
60974;BME280;46846;51.528;5.076;2023-06-26T01:52:09;100764.69;;;27.43;38.03
60974;BME280;46846;51.528;5.076;2023-06-26T01:54:46;100771.47;;;27.39;38.24
60974;BME280;46846;51.528;5.076;2023-06-26T01:57:14;100770.78;;;27.29;38.44
60974;BME280;46846;51.528;5.076;2023-06-26T01:59:40;100776.09;;;27.30;38.19
60974;BME280;46846;51.528;5.076;2023-06-26T02:02:07;100773.50;;;27.29;38.37
60974;BME280;46846;51.528;5.076;2023-06-26T02:04:33;100764.25;;;27.22;38.45
60974;BME280;46846;51.528;5.076;2023-06-26T02:06:58;100769.19;;;27.18;38.55
60974;BME280;46846;51.528;5.076;2023-06-26T02:09:24;100776.38;;;27.19;38.40
60974;BME280;46846;51.528;5.076;2023-06-26T02:11:49;100772.09;;;27.16;38.11
60974;BME280;46846;51.528;5.076;2023-06-26T02:14:15;100770.38;;;27.15;38.36
60974;BME280;46846;51.528;5.076;2023-06-26T02:16:40;100773.94;;;27.08;38.23
60974;BME280;46846;51.528;5.076;2023-06-26T02:19:05;100767.78;;;27.06;38.14
60974;BME280;46846;51.528;5.076;2023-06-26T02:21:31;100772.25;;;27.07;38.47
60974;BME280;46846;51.528;5.076;2023-06-26T02:23:56;100770.31;;;26.99;38.32
60974;BME280;46846;51.528;5.076;2023-06-26T02:26:21;100773.53;;;26.94;38.49
60974;BME280;46846;51.528;5.076;2023-06-26T02:28:47;100781.88;;;26.93;38.58
60974;BME280;46846;51.528;5.076;2023-06-26T02:31:13;100790.53;;;26.88;38.30
60974;BME280;46846;51.528;5.076;2023-06-26T02:33:38;100787.09;;;26.86;38.25
60974;BME280;46846;51.528;5.076;2023-06-26T02:36:04;100792.72;;;26.84;38.39
60974;BME280;46846;51.528;5.076;2023-06-26T02:38:30;100791.16;;;26.82;38.15
60974;BME280;46846;51.528;5.076;2023-06-26T02:40:55;100804.75;;;26.73;38.69
60974;BME280;46846;51.528;5.076;2023-06-26T02:43:20;100800.19;;;26.74;38.22
60974;BME280;46846;51.528;5.076;2023-06-26T02:45:46;100799.16;;;26.75;38.53
60974;BME280;46846;51.528;5.076;2023-06-26T02:48:11;100803.38;;;26.69;38.25
60974;BME280;46846;51.528;5.076;2023-06-26T02:50:36;100813.03;;;26.64;38.18
60974;BME280;46846;51.528;5.076;2023-06-26T02:53:02;100805.88;;;26.62;38.54
60974;BME280;46846;51.528;5.076;2023-06-26T02:55:27;100815.63;;;26.65;38.68
60974;BME280;46846;51.528;5.076;2023-06-26T02:57:52;100820.88;;;26.58;38.17
60974;BME280;46846;51.528;5.076;2023-06-26T03:00:18;100827.13;;;26.51;38.62
60974;BME280;46846;51.528;5.076;2023-06-26T03:02:43;100825.41;;;26.50;38.31
60974;BME280;46846;51.528;5.076;2023-06-26T03:05:09;100820.81;;;26.50;38.49
60974;BME280;46846;51.528;5.076;2023-06-26T03:07:34;100814.97;;;26.45;38.76
60974;BME280;46846;51.528;5.076;2023-06-26T03:10:00;100818.88;;;26.42;38.69
60974;BME280;46846;51.528;5.076;2023-06-26T03:12:25;100819.19;;;26.39;38.68
60974;BME280;46846;51.528;5.076;2023-06-26T03:14:51;100819.66;;;26.34;38.97
60974;BME280;46846;51.528;5.076;2023-06-26T03:17:16;100827.28;;;26.31;38.57
60974;BME280;46846;51.528;5.076;2023-06-26T03:19:41;100824.19;;;26.26;39.05
60974;BME280;46846;51.528;5.076;2023-06-26T03:22:07;100823.47;;;26.24;38.88
60974;BME280;46846;51.528;5.076;2023-06-26T03:24:33;100817.31;;;26.21;39.26
60974;BME280;46846;51.528;5.076;2023-06-26T03:26:59;100815.91;;;26.17;38.99
60974;BME280;46846;51.528;5.076;2023-06-26T03:29:25;100823.38;;;26.15;38.99
60974;BME280;46846;51.528;5.076;2023-06-26T03:31:50;100818.56;;;26.09;39.08
60974;BME280;46846;51.528;5.076;2023-06-26T03:34:15;100820.41;;;26.08;39.03
60974;BME280;46846;51.528;5.076;2023-06-26T03:36:41;100821.44;;;26.07;39.41
60974;BME280;46846;51.528;5.076;2023-06-26T03:39:06;100816.44;;;26.03;39.56
60974;BME280;46846;51.528;5.076;2023-06-26T03:41:32;100832.97;;;26.01;39.39
60974;BME280;46846;51.528;5.076;2023-06-26T03:43:57;100836.16;;;25.97;39.40
60974;BME280;46846;51.528;5.076;2023-06-26T03:46:23;100827.28;;;25.94;39.43
60974;BME280;46846;51.528;5.076;2023-06-26T03:48:48;100826.00;;;25.89;39.73
60974;BME280;46846;51.528;5.076;2023-06-26T03:51:14;100834.91;;;25.91;39.94
60974;BME280;46846;51.528;5.076;2023-06-26T03:53:40;100839.06;;;25.85;39.71
60974;BME280;46846;51.528;5.076;2023-06-26T03:56:05;100842.13;;;25.82;39.87
60974;BME280;46846;51.528;5.076;2023-06-26T03:58:31;100841.13;;;25.83;39.79
60974;BME280;46846;51.528;5.076;2023-06-26T04:00:56;100851.94;;;25.75;40.17
60974;BME280;46846;51.528;5.076;2023-06-26T04:03:23;100850.22;;;25.74;40.07
60974;BME280;46846;51.528;5.076;2023-06-26T04:05:48;100855.94;;;25.71;40.38
60974;BME280;46846;51.528;5.076;2023-06-26T04:08:14;100865.69;;;25.73;39.97
60974;BME280;46846;51.528;5.076;2023-06-26T04:10:39;100877.38;;;25.65;40.25
60974;BME280;46846;51.528;5.076;2023-06-26T04:13:04;100867.78;;;25.61;40.41
60974;BME280;46846;51.528;5.076;2023-06-26T04:15:30;100871.38;;;25.62;40.11
60974;BME280;46846;51.528;5.076;2023-06-26T04:17:55;100870.63;;;25.60;40.46
60974;BME280;46846;51.528;5.076;2023-06-26T04:20:20;100871.50;;;25.60;40.67
60974;BME280;46846;51.528;5.076;2023-06-26T04:22:46;100872.53;;;25.49;40.56
60974;BME280;46846;51.528;5.076;2023-06-26T04:25:11;100863.34;;;25.50;40.48
60974;BME280;46846;51.528;5.076;2023-06-26T04:27:37;100874.56;;;25.47;40.79
60974;BME280;46846;51.528;5.076;2023-06-26T04:30:02;100879.31;;;25.45;40.65
60974;BME280;46846;51.528;5.076;2023-06-26T04:32:28;100885.16;;;25.40;40.82
60974;BME280;46846;51.528;5.076;2023-06-26T04:34:53;100882.91;;;25.36;40.64
60974;BME280;46846;51.528;5.076;2023-06-26T04:37:19;100885.22;;;25.31;40.64
60974;BME280;46846;51.528;5.076;2023-06-26T04:39:44;100887.66;;;25.34;40.78
60974;BME280;46846;51.528;5.076;2023-06-26T04:42:10;100887.78;;;25.32;41.16
60974;BME280;46846;51.528;5.076;2023-06-26T04:44:38;100890.25;;;25.25;41.13
60974;BME280;46846;51.528;5.076;2023-06-26T04:47:06;100896.41;;;25.28;41.17
60974;BME280;46846;51.528;5.076;2023-06-26T04:49:31;100898.13;;;25.19;40.82
60974;BME280;46846;51.528;5.076;2023-06-26T04:51:57;100906.31;;;25.19;40.91
60974;BME280;46846;51.528;5.076;2023-06-26T04:54:25;100895.88;;;25.14;40.90
60974;BME280;46846;51.528;5.076;2023-06-26T04:56:51;100905.47;;;25.18;41.10
60974;BME280;46846;51.528;5.076;2023-06-26T04:59:16;100909.09;;;25.09;41.00
60974;BME280;46846;51.528;5.076;2023-06-26T05:01:42;100908.22;;;25.08;41.06
60974;BME280;46846;51.528;5.076;2023-06-26T05:04:07;100916.50;;;25.07;41.26
60974;BME280;46846;51.528;5.076;2023-06-26T05:06:33;100923.41;;;25.01;41.21
60974;BME280;46846;51.528;5.076;2023-06-26T05:08:58;100921.13;;;25.06;41.13
60974;BME280;46846;51.528;5.076;2023-06-26T05:11:24;100922.13;;;25.05;41.39
60974;BME280;46846;51.528;5.076;2023-06-26T05:13:50;100929.28;;;24.96;41.45
60974;BME280;46846;51.528;5.076;2023-06-26T05:16:15;100921.41;;;25.03;41.56
60974;BME280;46846;51.528;5.076;2023-06-26T05:18:41;100920.56;;;25.03;41.38
60974;BME280;46846;51.528;5.076;2023-06-26T05:21:06;100922.84;;;24.97;41.50
60974;BME280;46846;51.528;5.076;2023-06-26T05:23:33;100935.00;;;25.03;41.20
60974;BME280;46846;51.528;5.076;2023-06-26T05:26:02;100929.00;;;24.99;41.23
60974;BME280;46846;51.528;5.076;2023-06-26T05:28:29;100925.88;;;24.94;40.97
60974;BME280;46846;51.528;5.076;2023-06-26T05:30:57;100929.88;;;25.00;41.25
60974;BME280;46846;51.528;5.076;2023-06-26T05:33:24;100948.78;;;25.02;41.05
60974;BME280;46846;51.528;5.076;2023-06-26T05:35:53;100948.03;;;24.99;41.15
60974;BME280;46846;51.528;5.076;2023-06-26T05:38:20;100953.09;;;25.04;40.94
60974;BME280;46846;51.528;5.076;2023-06-26T05:40:45;100956.94;;;25.02;41.11
60974;BME280;46846;51.528;5.076;2023-06-26T05:43:11;100960.38;;;25.04;41.09
60974;BME280;46846;51.528;5.076;2023-06-26T05:45:37;100971.56;;;25.01;41.11
60974;BME280;46846;51.528;5.076;2023-06-26T05:48:02;100974.44;;;24.99;40.90
60974;BME280;46846;51.528;5.076;2023-06-26T05:50:28;100972.41;;;25.01;40.69
60974;BME280;46846;51.528;5.076;2023-06-26T05:52:54;100972.97;;;25.05;40.63
60974;BME280;46846;51.528;5.076;2023-06-26T05:55:20;100975.84;;;25.03;40.88
60974;BME280;46846;51.528;5.076;2023-06-26T05:57:46;100979.31;;;25.05;40.71
60974;BME280;46846;51.528;5.076;2023-06-26T06:00:13;100981.59;;;25.10;40.74
60974;BME280;46846;51.528;5.076;2023-06-26T06:02:39;100984.16;;;25.11;40.73
60974;BME280;46846;51.528;5.076;2023-06-26T06:05:05;100977.16;;;25.09;40.52
60974;BME280;46846;51.528;5.076;2023-06-26T06:07:35;100988.75;;;25.11;40.50
60974;BME280;46846;51.528;5.076;2023-06-26T06:10:01;100992.91;;;25.15;40.43
60974;BME280;46846;51.528;5.076;2023-06-26T06:12:27;100990.47;;;25.12;40.55
60974;BME280;46846;51.528;5.076;2023-06-26T06:14:53;100996.47;;;25.16;40.51
60974;BME280;46846;51.528;5.076;2023-06-26T06:17:19;100993.03;;;25.14;40.63
60974;BME280;46846;51.528;5.076;2023-06-26T06:19:45;100999.06;;;25.17;40.54
60974;BME280;46846;51.528;5.076;2023-06-26T06:22:11;100997.47;;;25.24;40.73
60974;BME280;46846;51.528;5.076;2023-06-26T06:24:36;100992.03;;;25.24;40.19
60974;BME280;46846;51.528;5.076;2023-06-26T06:27:02;100998.47;;;25.23;40.31
60974;BME280;46846;51.528;5.076;2023-06-26T06:29:27;101006.94;;;25.20;40.45
60974;BME280;46846;51.528;5.076;2023-06-26T06:31:52;101012.09;;;25.23;40.55
60974;BME280;46846;51.528;5.076;2023-06-26T06:34:18;101029.97;;;25.26;39.99
60974;BME280;46846;51.528;5.076;2023-06-26T06:36:43;101031.56;;;25.29;40.01
60974;BME280;46846;51.528;5.076;2023-06-26T06:39:09;101031.56;;;25.29;40.01
60974;BME280;46846;51.528;5.076;2023-06-26T06:41:34;101026.69;;;25.32;40.21
60974;BME280;46846;51.528;5.076;2023-06-26T06:43:59;101028.41;;;25.33;39.83
60974;BME280;46846;51.528;5.076;2023-06-26T06:46:25;101034.59;;;25.35;40.13
60974;BME280;46846;51.528;5.076;2023-06-26T06:48:52;101047.91;;;25.29;40.00
60974;BME280;46846;51.528;5.076;2023-06-26T06:51:18;101055.94;;;25.30;39.85
60974;BME280;46846;51.528;5.076;2023-06-26T06:53:43;101062.97;;;25.33;40.28
60974;BME280;46846;51.528;5.076;2023-06-26T06:56:08;101077.72;;;25.30;40.06
60974;BME280;46846;51.528;5.076;2023-06-26T06:58:34;101082.75;;;25.35;40.34
60974;BME280;46846;51.528;5.076;2023-06-26T07:01:01;101082.75;;;25.35;40.16
60974;BME280;46846;51.528;5.076;2023-06-26T07:03:29;101076.44;;;25.34;40.12
60974;BME280;46846;51.528;5.076;2023-06-26T07:05:55;101071.84;;;25.35;40.34
60974;BME280;46846;51.528;5.076;2023-06-26T07:08:20;101070.84;;;25.36;40.05
60974;BME280;46846;51.528;5.076;2023-06-26T07:10:46;101084.31;;;25.37;40.27
60974;BME280;46846;51.528;5.076;2023-06-26T07:13:11;101088.47;;;25.42;40.21
60974;BME280;46846;51.528;5.076;2023-06-26T07:15:37;101090.78;;;25.46;40.05
60974;BME280;46846;51.528;5.076;2023-06-26T07:18:02;101096.66;;;25.51;40.16
60974;BME280;46846;51.528;5.076;2023-06-26T07:20:28;101089.78;;;25.57;40.13
60974;BME280;46846;51.528;5.076;2023-06-26T07:22:53;101098.38;;;25.62;39.73
60974;BME280;46846;51.528;5.076;2023-06-26T07:25:18;101099.09;;;25.64;39.86
60974;BME280;46846;51.528;5.076;2023-06-26T07:27:44;101095.94;;;25.69;39.84
60974;BME280;46846;51.528;5.076;2023-06-26T07:30:10;101107.09;;;25.66;39.62
60974;BME280;46846;51.528;5.076;2023-06-26T07:32:36;101107.41;;;25.63;40.04
60974;BME280;46846;51.528;5.076;2023-06-26T07:35:02;101115.28;;;25.66;39.15
60974;BME280;46846;51.528;5.076;2023-06-26T07:37:27;101110.56;;;25.68;39.47
60974;BME280;46846;51.528;5.076;2023-06-26T07:39:53;101124.91;;;25.70;39.47
60974;BME280;46846;51.528;5.076;2023-06-26T07:42:18;101127.19;;;25.75;39.11
60974;BME280;46846;51.528;5.076;2023-06-26T07:44:44;101127.03;;;25.76;39.10
60974;BME280;46846;51.528;5.076;2023-06-26T07:47:09;101126.88;;;25.78;39.67
60974;BME280;46846;51.528;5.076;2023-06-26T07:49:35;101127.63;;;25.80;39.13
60974;BME280;46846;51.528;5.076;2023-06-26T07:52:01;101128.19;;;25.84;39.76
60974;BME280;46846;51.528;5.076;2023-06-26T07:54:26;101130.59;;;25.87;39.34
60974;BME280;46846;51.528;5.076;2023-06-26T07:59:19;101133.03;;;25.90;39.59
60974;BME280;46846;51.528;5.076;2023-06-26T08:01:46;101142.94;;;25.91;39.50
60974;BME280;46846;51.528;5.076;2023-06-26T08:04:11;101152.84;;;25.92;39.24
60974;BME280;46846;51.528;5.076;2023-06-26T08:06:36;101145.66;;;25.91;39.57
60974;BME280;46846;51.528;5.076;2023-06-26T08:09:06;101133.44;;;25.95;39.26
60974;BME280;46846;51.528;5.076;2023-06-26T08:11:33;101144.91;;;25.99;39.36
60974;BME280;46846;51.528;5.076;2023-06-26T08:13:58;101150.25;;;26.00;39.26
60974;BME280;46846;51.528;5.076;2023-06-26T08:16:24;101145.47;;;26.02;39.02
60974;BME280;46846;51.528;5.076;2023-06-26T08:18:49;101141.91;;;26.02;39.44
60974;BME280;46846;51.528;5.076;2023-06-26T08:21:14;101145.91;;;26.07;39.43
60974;BME280;46846;51.528;5.076;2023-06-26T08:23:40;101142.75;;;26.12;39.04
60974;BME280;46846;51.528;5.076;2023-06-26T08:26:05;101146.91;;;26.16;39.23
60974;BME280;46846;51.528;5.076;2023-06-26T08:28:30;101139.16;;;26.21;39.07
60974;BME280;46846;51.528;5.076;2023-06-26T08:30:56;101142.56;;;26.24;38.99
60974;BME280;46846;51.528;5.076;2023-06-26T08:33:21;101147.75;;;26.27;39.12
60974;BME280;46846;51.528;5.076;2023-06-26T08:35:47;101151.19;;;26.29;38.94
60974;BME280;46846;51.528;5.076;2023-06-26T08:38:12;101151.75;;;26.32;38.70
60974;BME280;46846;51.528;5.076;2023-06-26T08:40:37;101161.34;;;26.37;38.97
60974;BME280;46846;51.528;5.076;2023-06-26T08:43:03;101165.50;;;26.41;38.70
60974;BME280;46846;51.528;5.076;2023-06-26T08:45:29;101166.06;;;26.44;38.43
60974;BME280;46846;51.528;5.076;2023-06-26T08:47:56;101172.94;;;26.48;38.80
60974;BME280;46846;51.528;5.076;2023-06-26T08:50:28;101166.34;;;26.51;38.62
60974;BME280;46846;51.528;5.076;2023-06-26T08:53:09;101170.31;;;26.57;38.60
60974;BME280;46846;51.528;5.076;2023-06-26T08:55:41;101170.88;;;26.60;38.19
60974;BME280;46846;51.528;5.076;2023-06-26T08:58:08;101178.75;;;26.64;38.23
60974;BME280;46846;51.528;5.076;2023-06-26T09:00:34;101180.03;;;26.69;38.32
60974;BME280;46846;51.528;5.076;2023-06-26T09:03:00;101180.59;;;26.73;38.11
60974;BME280;46846;51.528;5.076;2023-06-26T09:05:26;101182.00;;;26.77;37.86
60974;BME280;46846;51.528;5.076;2023-06-26T09:07:57;101193.47;;;26.81;38.05
60974;BME280;46846;51.528;5.076;2023-06-26T09:10:24;101185.13;;;26.82;38.03
60974;BME280;46846;51.528;5.076;2023-06-26T09:12:50;101184.81;;;26.85;37.58
60974;BME280;46846;51.528;5.076;2023-06-26T09:15:16;101167.16;;;26.89;37.91
60974;BME280;46846;51.528;5.076;2023-06-26T09:17:44;101185.97;;;26.93;38.09
60974;BME280;46846;51.528;5.076;2023-06-26T09:20:09;101181.19;;;26.95;37.82
60974;BME280;46846;51.528;5.076;2023-06-26T09:22:41;101189.09;;;26.98;37.87
60974;BME280;46846;51.528;5.076;2023-06-26T09:25:07;101195.13;;;27.01;37.43
60974;BME280;46846;51.528;5.076;2023-06-26T09:27:34;101202.84;;;27.06;37.72
60974;BME280;46846;51.528;5.076;2023-06-26T09:30:02;101205.25;;;27.09;37.50
60974;BME280;46846;51.528;5.076;2023-06-26T09:32:27;101203.97;;;27.13;37.45
60974;BME280;46846;51.528;5.076;2023-06-26T09:34:53;101211.00;;;27.16;37.15
60974;BME280;46846;51.528;5.076;2023-06-26T09:37:21;101211.53;;;27.20;37.03
60974;BME280;46846;51.528;5.076;2023-06-26T09:39:47;101218.41;;;27.24;36.63
60974;BME280;46846;51.528;5.076;2023-06-26T09:42:16;101227.31;;;27.26;36.93
60974;BME280;46846;51.528;5.076;2023-06-26T09:44:46;101217.09;;;27.28;36.55
60974;BME280;46846;51.528;5.076;2023-06-26T09:47:11;101218.50;;;27.32;36.52
60974;BME280;46846;51.528;5.076;2023-06-26T09:49:43;101231.16;;;27.33;36.42
60974;BME280;46846;51.528;5.076;2023-06-26T09:52:09;101221.47;;;27.39;35.63
60974;BME280;46846;51.528;5.076;2023-06-26T09:54:36;101220.13;;;27.43;35.46
60974;BME280;46846;51.528;5.076;2023-06-26T09:57:20;101220.69;;;27.47;35.96
60974;BME280;46846;51.528;5.076;2023-06-26T09:59:45;101221.09;;;27.52;35.79
60974;BME280;46846;51.528;5.076;2023-06-26T10:02:11;101234.47;;;27.55;35.58
60974;BME280;46846;51.528;5.076;2023-06-26T10:04:37;101237.94;;;27.57;35.84
60974;BME280;46846;51.528;5.076;2023-06-26T10:07:10;101248.38;;;27.62;35.81
60974;BME280;46846;51.528;5.076;2023-06-26T10:09:40;101244.63;;;27.63;35.35
60974;BME280;46846;51.528;5.076;2023-06-26T10:12:19;101248.06;;;27.65;35.52
60974;BME280;46846;51.528;5.076;2023-06-26T10:14:45;101247.59;;;27.69;35.06
60974;BME280;46846;51.528;5.076;2023-06-26T10:17:16;101254.47;;;27.74;34.90
60974;BME280;46846;51.528;5.076;2023-06-26T10:19:44;101253.31;;;27.76;34.78
60974;BME280;46846;51.528;5.076;2023-06-26T10:22:11;101252.97;;;27.79;34.84
60974;BME280;46846;51.528;5.076;2023-06-26T10:24:40;101251.66;;;27.83;34.51
60974;BME280;46846;51.528;5.076;2023-06-26T10:27:18;101271.03;;;27.90;34.60
60974;BME280;46846;51.528;5.076;2023-06-26T10:29:46;101273.63;;;27.92;34.39
60974;BME280;46846;51.528;5.076;2023-06-26T10:32:12;101268.00;;;27.93;34.59
60974;BME280;46846;51.528;5.076;2023-06-26T10:34:38;101268.47;;;27.89;34.69
60974;BME280;46846;51.528;5.076;2023-06-26T10:37:04;101277.38;;;27.91;34.46
60974;BME280;46846;51.528;5.076;2023-06-26T10:39:49;101282.03;;;27.98;34.24
60974;BME280;46846;51.528;5.076;2023-06-26T10:42:16;101271.63;;;28.02;34.02
60974;BME280;46846;51.528;5.076;2023-06-26T10:44:46;101273.22;;;28.05;34.07
60974;BME280;46846;51.528;5.076;2023-06-26T10:47:29;101256.66;;;28.06;34.19
60974;BME280;46846;51.528;5.076;2023-06-26T10:49:55;101257.19;;;28.10;33.89
60974;BME280;46846;51.528;5.076;2023-06-26T10:52:20;101276.88;;;28.14;34.00
60974;BME280;46846;51.528;5.076;2023-06-26T10:54:46;101278.59;;;28.15;33.88
60974;BME280;46846;51.528;5.076;2023-06-26T10:57:23;101282.03;;;28.17;33.91
60974;BME280;46846;51.528;5.076;2023-06-26T10:59:48;101278.69;;;28.05;34.51
60974;BME280;46846;51.528;5.076;2023-06-26T11:02:15;101288.78;;;28.04;33.57
60974;BME280;46846;51.528;5.076;2023-06-26T11:04:45;101284.69;;;28.08;33.20
60974;BME280;46846;51.528;5.076;2023-06-26T11:07:29;101283.03;;;28.16;32.68
60974;BME280;46846;51.528;5.076;2023-06-26T11:10:09;101281.19;;;28.16;32.78
60974;BME280;46846;51.528;5.076;2023-06-26T11:12:42;101290.06;;;28.18;32.99
60974;BME280;46846;51.528;5.076;2023-06-26T11:15:08;101287.69;;;28.15;33.12
60974;BME280;46846;51.528;5.076;2023-06-26T11:17:35;101287.34;;;28.18;33.30
60974;BME280;46846;51.528;5.076;2023-06-26T11:20:02;101285.34;;;28.20;31.70
60974;BME280;46846;51.528;5.076;2023-06-26T11:22:30;101301.75;;;28.20;33.15
60974;BME280;46846;51.528;5.076;2023-06-26T11:24:59;101301.44;;;28.23;32.79
60974;BME280;46846;51.528;5.076;2023-06-26T11:27:53;101300.28;;;28.26;32.70
60974;BME280;46846;51.528;5.076;2023-06-26T11:30:25;101308.16;;;28.29;32.71
60974;BME280;46846;51.528;5.076;2023-06-26T11:32:51;101315.19;;;28.32;33.07
60974;BME280;46846;51.528;5.076;2023-06-26T11:35:23;101308.38;;;28.36;32.87
60974;BME280;46846;51.528;5.076;2023-06-26T11:38:00;101314.16;;;28.33;32.60
60974;BME280;46846;51.528;5.076;2023-06-26T11:40:29;101317.59;;;28.35;32.48
60974;BME280;46846;51.528;5.076;2023-06-26T11:43:00;101320.72;;;28.40;32.35
60974;BME280;46846;51.528;5.076;2023-06-26T11:45:31;101333.25;;;28.43;32.75
60974;BME280;46846;51.528;5.076;2023-06-26T11:47:58;101339.19;;;28.38;32.63
60974;BME280;46846;51.528;5.076;2023-06-26T11:50:24;101330.50;;;28.43;32.54
60974;BME280;46846;51.528;5.076;2023-06-26T11:52:57;101343.00;;;28.45;32.61
60974;BME280;46846;51.528;5.076;2023-06-26T11:55:24;101336.34;;;28.48;32.36
60974;BME280;46846;51.528;5.076;2023-06-26T11:57:52;101342.00;;;28.46;32.51
60974;BME280;46846;51.528;5.076;2023-06-26T12:00:18;101345.41;;;28.48;32.39
60974;BME280;46846;51.528;5.076;2023-06-26T12:02:46;101348.50;;;28.45;32.59
60974;BME280;46846;51.528;5.076;2023-06-26T12:05:14;101358.41;;;28.46;32.75
60974;BME280;46846;51.528;5.076;2023-06-26T12:07:41;101353.78;;;28.47;32.35
60974;BME280;46846;51.528;5.076;2023-06-26T12:10:08;101348.78;;;28.42;32.73
60974;BME280;46846;51.528;5.076;2023-06-26T12:12:35;101353.63;;;28.48;32.49
60974;BME280;46846;51.528;5.076;2023-06-26T12:15:01;101364.44;;;28.50;32.79
60974;BME280;46846;51.528;5.076;2023-06-26T12:17:27;101357.78;;;28.52;32.22
60974;BME280;46846;51.528;5.076;2023-06-26T12:19:53;101350.91;;;28.48;32.28
60974;BME280;46846;51.528;5.076;2023-06-26T12:22:19;101359.50;;;28.54;32.44
60974;BME280;46846;51.528;5.076;2023-06-26T12:24:45;101349.03;;;28.49;32.07
60974;BME280;46846;51.528;5.076;2023-06-26T12:27:16;101347.13;;;28.49;32.66
60974;BME280;46846;51.528;5.076;2023-06-26T12:29:53;101352.59;;;28.49;32.17
60974;BME280;46846;51.528;5.076;2023-06-26T12:32:21;101348.56;;;28.54;32.06
60974;BME280;46846;51.528;5.076;2023-06-26T12:34:48;101354.88;;;28.54;32.12
60974;BME280;46846;51.528;5.076;2023-06-26T12:37:15;101352.84;;;28.56;32.21
60974;BME280;46846;51.528;5.076;2023-06-26T12:39:56;101358.88;;;28.60;31.85
60974;BME280;46846;51.528;5.076;2023-06-26T12:42:23;101362.94;;;28.56;31.92
60974;BME280;46846;51.528;5.076;2023-06-26T12:44:50;101365.81;;;28.54;32.45
60974;BME280;46846;51.528;5.076;2023-06-26T12:47:17;101360.34;;;28.54;31.94
60974;BME280;46846;51.528;5.076;2023-06-26T12:49:44;101367.38;;;28.57;31.62
60974;BME280;46846;51.528;5.076;2023-06-26T12:52:13;101374.22;;;28.52;31.93
60974;BME280;46846;51.528;5.076;2023-06-26T12:54:41;101374.84;;;28.46;32.20
60974;BME280;46846;51.528;5.076;2023-06-26T12:57:07;101368.34;;;28.47;31.91